Placentia, CA

11:58 AM PDT en Agosto 27, 2014 (GMT -0700)
Yorba Linda Blvd. | Change Station
CLOSE
Current Station
Estación meteorológica personal
Location: Placentia, CA
Altura: 308 ft
Estaciones meteorológicas cercanas
Aviso en curso: High Surf Advisory Aviso activo: Local Storm Report

Alt 308 ft 33.89 °N, 117.84 °W | Updated 2 minutes ago

Despejado
Despejado
94.2 ° F
Sensación térmica 93 ° F
N
3.0
Viento Variable Viento desde SO

Hoy
Alta -- | Baja -- ° F
--% Posibilidad de precipitaciones
Ayer
Alta -- | Baja -- ° F
Precip. -- pul
6:21 AM 7:23 PM
Creciente, 4% visible
Presión 30.02 pul
Visibilidad 10.0 Millas
Nubes Despejado
Índice de calor 93 ° F
Punto de rocío 58 ° F
Humedad 30%
Precipitaciones 0.00 pul
Espesor de la nieve No disponible.
UV 8 de una escala de 12
Polen 7.50 de una escala de 12
Ozono Buena
Flu Activity No disponible.
METAR KFUL 271753Z VRB03KT 10SM CLR 31/13 A3002 RMK AO2 SLP164 T03060128 10311 20194 50001

More Conditions Fewer Conditions

Presión 30.02 pul
Visibilidad 10.0 Millas
Nubes Despejado
Índice de calor 93 ° F
Punto de rocío 58 ° F
Humedad 30%
Precipitaciones 0.00 pul
Espesor de la nieve No disponible.
UV 8 de una escala de 12
Polen 7.50 de una escala de 12
Ozono Buena
Flu Activity No disponible.
METAR KFUL 271753Z VRB03KT 10SM CLR 31/13 A3002 RMK AO2 SLP164 T03060128 10311 20194 50001

More Conditions Fewer Conditions

10-Day Weather Forecast

Almanac

Astronomía

Aug. 27, 2014 Salida Puesta
Hora real 6:21 AM PDT 7:23 PM PDT
Crepúsculo civil 5:56 AM PDT 7:49 PM PDT
Crepúsculo náutico 5:25 AM PDT 8:19 PM PDT
Crepúsculo astronómico 4:53 AM PDT 8:50 PM PDT
Luna 8:14 AM PDT 8:26 PM PDT
Horas de luz 13h 53m
Horas de luz
13h 01m
Tomorrow will be 1m 59s shorter.
Creciente, 4% of the Moon is Illuminated
Hoy
Creciente
Sep 2
Cuarto creciente
Sep 8
Luna llena
Sep 15
Cuarto menguante
Sep 24
Nueva

Extremos de hoy

Máximos del estado Bajos del estado

Community

WunderPhotos

Upload Photos

1,747,752 ¡fotos cargadas!

Nearby

Calidad del aire

  Calidad del aire Índice AQ Contaminante
Ayer Buena
PM10
Ayer Buena
OZONE
Real Buena
OZONE
Jueves Buena
PM10
Jueves Buena
OZONE
Jueves Buena
CO
Jueves Buena
NO2

Grosos de nieve

Estación Profundido Altura
Leavitt Lake 0 in 9400 ft
Rubicon #2 0 in 7500 ft
Adin Mountain 0 in 6200 ft

Actividad de terremotos

Ciudad Distance Mag. Tiempo y dato
San Fernando, California 41 Millas 2.5 4:57 AM PDT
2014-08-26
San Pedro, California 27 Millas 3.2 7:50 PM PDT
2014-08-24
Magnitud mínima muestra es 2,5.

Temperaturas de aguas costeras

Lugar Temperatura
Santa Monica Pier 71.1 ° F
Los Angeles, CA 66.9 ° F
La Jolla, CA 70.0 ° F

Estaciones meteorológicas cercanas